Explore Kentucky Lake

Lake Conditions
Facebook Twitter Instagram YouTube Contact Us About Us
Switch Mobile/Desktop

Previous Lake Barkley Levels

Home | Lake Conditions | Previous Lake Barkley Levels

Lake Barkley Stages Over Last 48 Hours

The following table shows the previous 48 hours for Lake Barkley.

Date/Time Lake River Discharge (cfs)
7/17/2019 6 PM CDT 359.45' 313.25' 25,200
7/17/2019 5 PM CDT 359.50' 312.70' 18,100
7/17/2019 4 PM CDT 359.50' 312.70' 18,300
7/17/2019 3 PM CDT 359.50' 312.70' 18,300
7/17/2019 2 PM CDT 359.50' 312.80' 18,400
7/17/2019 1 PM CDT 359.50' 312.90' 19,800
7/17/2019 12 PM CDT 359.50' 313.00' 20,000
7/17/2019 11 AM CDT 359.50' 313.10' 20,000
7/17/2019 10 AM CDT 359.50' 313.20' 20,000
7/17/2019 9 AM CDT 359.50' 313.40' 20,000
7/17/2019 8 AM CDT 359.50' 313.80' 20,400
7/17/2019 7 AM CDT 359.45' 314.55' 30,900
7/17/2019 6 AM CDT 359.50' 314.50' 30,600
7/17/2019 5 AM CDT 359.50' 314.50' 30,900
7/17/2019 4 AM CDT 359.50' 314.50' 30,900
7/17/2019 3 AM CDT 359.50' 314.50' 30,900
7/17/2019 2 AM CDT 359.50' 314.40' 30,900
7/17/2019 1 AM CDT 359.50' 314.40' 30,900
7/17/2019 12 AM CDT 359.50' 314.40' 31,200
7/16/2019 11 PM CDT 359.55' 314.35' 31,200
7/16/2019 10 PM CDT 359.55' 314.25' 30,600
7/16/2019 9 PM CDT 359.55' 314.25' 30,600
7/16/2019 8 PM CDT 359.55' 314.15' 30,600
7/16/2019 7 PM CDT 359.55' 313.85' 30,600
7/16/2019 6 PM CDT 359.55' 313.55' 30,300
7/16/2019 5 PM CDT 359.60' 312.50' 19,600
7/16/2019 4 PM CDT 359.65' 312.65' 19,600
7/16/2019 3 PM CDT 359.65' 312.65' 19,600
7/16/2019 2 PM CDT 359.70' 313.00' 19,800
7/16/2019 1 PM CDT 359.65' 312.75' 19,800
7/16/2019 12 PM CDT 359.60' 312.70' 19,800
7/16/2019 11 AM CDT 359.60' 312.80' 19,800
7/16/2019 10 AM CDT 359.55' 312.85' 19,800
7/16/2019 9 AM CDT 359.55' 312.95' 19,800
7/16/2019 8 AM CDT 359.55' 313.35' 20,000
7/16/2019 7 AM CDT 359.45' 314.35' 30,900
7/16/2019 6 AM CDT 359.45' 314.25' 30,000
7/16/2019 5 AM CDT 359.45' 314.25' 30,300
7/16/2019 4 AM CDT 359.45' 314.25' 30,300
7/16/2019 3 AM CDT 359.45' 314.25' 30,600
7/16/2019 2 AM CDT 359.45' 314.25' 30,300
7/16/2019 1 AM CDT 359.45' 314.25' 30,300
7/16/2019 12 AM CDT 359.40' 314.20' 30,600
7/15/2019 11 PM CDT 359.40' 314.20' 30,600
7/15/2019 10 PM CDT 359.40' 314.10' 30,900
7/15/2019 9 PM CDT 359.40' 314.10' 30,600
7/15/2019 8 PM CDT 359.40' 314.00' 30,600
7/15/2019 7 PM CDT 359.40' 313.90' 30,600
7/15/2019 6 PM CDT 359.40' 313.60' 30,300
7/15/2019 5 PM CDT 359.50' 312.70' 19,800
7/15/2019 4 PM CDT 359.40' 312.60' 19,500
7/15/2019 3 PM CDT 359.30' 312.70' 19,800
7/15/2019 2 PM CDT 359.25' 312.75' 20,000
7/15/2019 1 PM CDT 359.25' 312.85' 20,000
7/15/2019 12 PM CDT 359.20' 312.90' 19,700
7/15/2019 11 AM CDT 359.20' 313.10' 20,000
7/15/2019 10 AM CDT 359.20' 313.10' 20,000
7/15/2019 9 AM CDT 359.15' 313.45' 20,400
7/15/2019 8 AM CDT 359.10' 313.70' 20,400
7/15/2019 7 AM CDT 359.05' 314.75' 31,500
7/15/2019 6 AM CDT 359.10' 314.70' 30,300
7/15/2019 5 AM CDT 359.10' 314.70' 29,700
7/15/2019 4 AM CDT 359.10' 314.70' 30,000
7/15/2019 3 AM CDT 359.10' 314.80' 29,500
7/15/2019 2 AM CDT 359.10' 314.80' 29,900
7/15/2019 1 AM CDT 359.10' 314.80' 29,100

Turtle
Photo by Jennifer Dunnaway

This shy little turtle visited our campsite recently in Land Between The Lakes. There are several different species of turtles that can be seen near Kentucky Lake.